Time;durP1;ratioP1;P1;durP2;ratioP2;P2;SDS_P1;SDS_P2;PMS_P1;PMS_P2;Temp;Humidity;BMP_temperature;BMP_pressure;BME280_temperature;BME280_humidity;BME280_pressure;Samples;Min_cycle;Max_cycle;Signal;HPM_P1;HPM_P2
2022/01/22 00:01:30;;;;;;;;;;;;;;;3.22;57.76;99896.14;1707500;83;20243;-80
2022/01/22 00:03:55;;;;;;;;;;;;;;;3.45;57.52;99885.75;1710118;83;20188;-80
2022/01/22 00:06:21;;;;;;;;;;;;;;;3.11;58.18;99881.77;1709491;83;21511;-82
2022/01/22 00:08:47;;;;;;;;;;;;;;;2.93;58.79;99881.84;1711641;83;20231;-79
2022/01/22 00:11:12;;;;;;;;;;;;;;;2.97;58.64;99879.37;1714760;82;21144;-79
2022/01/22 00:16:22;;;;;;;;;;;;;;;3.31;57.86;99890.71;1708943;83;20554;-82
2022/01/22 00:18:47;;;;;;;;;;;;;;;3.01;58.66;99878.17;1711984;83;20120;-82
2022/01/22 00:21:13;;;;;;;;;;;;;;;3.24;58.57;99881.67;1710004;83;20132;-79
2022/01/22 00:23:43;;;;;;;;;;;;;;;2.94;59.15;99875.69;1715572;83;21156;-76
2022/01/22 00:26:06;;;;;;;;;;;;;;;3.03;59.32;99881.48;1710898;83;20184;-83
2022/01/22 00:28:31;;;;;;;;;;;;;;;3.10;59.61;99879.27;1709340;83;20161;-81
2022/01/22 00:30:57;;;;;;;;;;;;;;;2.87;60.08;99878.74;1716078;83;20160;-84
2022/01/22 00:33:23;;;;;;;;;;;;;;;2.66;60.96;99885.05;1736231;80;21207;-82
2022/01/22 00:35:48;;;;;;;;;;;;;;;2.69;61.24;99877.00;1755154;81;21882;-82
2022/01/22 00:38:15;;;;;;;;;;;;;;;2.85;60.35;99888.44;1749415;81;20144;-82
2022/01/22 00:40:41;;;;;;;;;;;;;;;2.91;60.90;99877.22;1756141;81;20164;-83
2022/01/22 00:43:06;;;;;;;;;;;;;;;2.84;61.13;99886.80;1751091;81;20223;-82
2022/01/22 00:45:32;;;;;;;;;;;;;;;2.73;61.52;99889.33;1753246;81;20221;-82
2022/01/22 00:47:58;;;;;;;;;;;;;;;2.77;61.31;99887.36;1747780;80;21125;-83
2022/01/22 00:50:23;;;;;;;;;;;;;;;2.46;62.34;99881.28;1755019;81;20140;-83
2022/01/22 00:52:49;;;;;;;;;;;;;;;2.69;61.73;99887.91;1750279;81;20191;-82
2022/01/22 00:55:15;;;;;;;;;;;;;;;2.63;62.07;99887.06;1754042;81;20179;-81
2022/01/22 00:57:40;;;;;;;;;;;;;;;2.62;62.62;99886.69;1757775;81;20130;-82
2022/01/22 01:00:09;;;;;;;;;;;;;;;2.44;63.28;99887.08;1748252;81;21125;-81
2022/01/22 01:02:36;;;;;;;;;;;;;;;2.77;62.75;99889.48;1747572;80;20201;-81
2022/01/22 01:05:03;;;;;;;;;;;;;;;2.90;62.22;99890.70;1756899;81;20130;-83
2022/01/22 01:07:30;;;;;;;;;;;;;;;2.37;64.25;99894.97;1747467;80;20138;-80
2022/01/22 01:09:56;;;;;;;;;;;;;;;2.43;64.27;99882.80;1749973;80;20272;-82
2022/01/22 01:12:21;;;;;;;;;;;;;;;2.47;64.24;99884.70;1751310;81;21202;-80
2022/01/22 01:14:55;;;;;;;;;;;;;;;2.97;63.04;99881.98;1751858;81;20832;-79
2022/01/22 01:17:46;;;;;;;;;;;;;;;2.91;63.26;99886.34;1746072;81;20103;-80
2022/01/22 01:33:41;;;;;;;;;;;;;;;2.26;65.93;99875.38;1739588;81;20173;-79
2022/01/22 01:35:57;;;;;;;;;;;;;;;2.45;66.00;99882.21;1726303;81;20101;-80
2022/01/22 01:38:24;;;;;;;;;;;;;;;2.60;65.71;99874.25;1741323;81;21093;-80
2022/01/22 01:41:05;;;;;;;;;;;;;;;2.15;67.15;99870.45;1726672;81;21143;-81
2022/01/22 01:43:29;;;;;;;;;;;;;;;2.36;66.83;99870.33;1733516;81;20135;-80
2022/01/22 01:45:51;;;;;;;;;;;;;;;2.36;66.96;99863.33;1750154;81;20199;-81
2022/01/22 01:48:22;;;;;;;;;;;;;;;2.25;67.20;99860.67;1744272;81;20163;-81
2022/01/22 01:50:44;;;;;;;;;;;;;;;2.22;67.97;99871.31;1740987;81;20154;-82
2022/01/22 01:56:03;;;;;;;;;;;;;;;2.23;68.38;99863.39;1745350;81;20143;-80
2022/01/22 01:58:17;;;;;;;;;;;;;;;2.24;68.12;99882.48;1736475;81;20128;-80
2022/01/22 02:00:43;;;;;;;;;;;;;;;2.26;68.47;99872.77;1724530;81;20343;-81
2022/01/22 02:03:11;;;;;;;;;;;;;;;2.20;68.77;99874.50;1735840;81;21103;-81
2022/01/22 02:05:37;;;;;;;;;;;;;;;2.46;68.19;99877.38;1728102;81;20119;-82
2022/01/22 02:08:03;;;;;;;;;;;;;;;2.20;68.51;99870.59;1747705;81;20196;-81
2022/01/22 02:10:35;;;;;;;;;;;;;;;2.21;68.91;99867.89;1735166;80;20344;-83
2022/01/22 02:23:55;;;;;;;;;;;;;;;2.44;68.58;99862.33;1742747;81;20201;-82
2022/01/22 02:26:20;;;;;;;;;;;;;;;2.41;68.77;99859.94;1734049;81;20230;-82
2022/01/22 02:28:48;;;;;;;;;;;;;;;2.36;69.13;99863.33;1737583;81;21144;-83
2022/01/22 02:31:24;;;;;;;;;;;;;;;2.21;69.51;99863.16;1732744;80;20127;-81
2022/01/22 02:36:39;;;;;;;;;;;;;;;2.51;68.26;99870.04;1748118;81;20135;-82
2022/01/22 02:41:36;;;;;;;;;;;;;;;2.38;68.93;99863.22;1753284;80;20142;-83
2022/01/22 02:44:01;;;;;;;;;;;;;;;2.64;68.24;99848.30;1734326;80;20136;-81
2022/01/22 02:46:28;;;;;;;;;;;;;;;2.48;68.29;99851.20;1746842;81;20138;-82
2022/01/22 02:48:54;;;;;;;;;;;;;;;2.65;67.92;99849.48;1730156;81;20139;-81
2022/01/22 02:51:22;;;;;;;;;;;;;;;2.71;67.80;99853.91;1732248;80;20609;-84
2022/01/22 02:53:49;;;;;;;;;;;;;;;2.22;69.29;99873.92;1733042;81;21172;-82
2022/01/22 02:56:16;;;;;;;;;;;;;;;2.27;69.30;99854.88;1732220;81;20188;-82
2022/01/22 02:58:41;;;;;;;;;;;;;;;2.59;68.33;99853.02;1727742;80;20199;-82
2022/01/22 03:01:07;;;;;;;;;;;;;;;2.63;67.55;99860.98;1746375;81;20162;-81
2022/01/22 03:03:33;;;;;;;;;;;;;;;2.47;68.00;99863.41;1748160;81;20835;-81
2022/01/22 03:06:01;;;;;;;;;;;;;;;2.71;67.45;99864.34;1739997;81;21065;-79
2022/01/22 03:08:28;;;;;;;;;;;;;;;2.64;67.38;99880.42;1734979;81;20144;-81
2022/01/22 03:10:54;;;;;;;;;;;;;;;2.62;67.12;99861.92;1740597;81;20185;-79
2022/01/22 03:18:57;;;;;;;;;;;;;;;2.53;67.49;99869.11;1743919;81;20479;-84
2022/01/22 03:29:19;;;;;;;;;;;;;;;3.01;65.67;99876.87;1743652;81;20214;-85
2022/01/22 03:31:43;;;;;;;;;;;;;;;2.78;66.15;99888.55;1734586;81;20155;-82
2022/01/22 03:34:08;;;;;;;;;;;;;;;2.93;65.75;99881.35;1740486;80;20132;-81
2022/01/22 03:36:34;;;;;;;;;;;;;;;2.98;65.33;99900.58;1769359;80;20157;-82
2022/01/22 03:39:01;;;;;;;;;;;;;;;2.82;65.92;99891.27;1775088;80;20247;-80
2022/01/22 03:41:27;;;;;;;;;;;;;;;2.15;67.86;99891.77;1775063;80;20378;-83
2022/01/22 03:43:52;;;;;;;;;;;;;;;2.58;66.70;99886.54;1773259;79;21068;-80
2022/01/22 03:46:18;;;;;;;;;;;;;;;2.50;66.98;99885.79;1771504;80;20612;-81
2022/01/22 03:48:44;;;;;;;;;;;;;;;2.90;65.65;99890.70;1771702;79;20132;-83
2022/01/22 03:51:09;;;;;;;;;;;;;;;2.59;65.99;99890.82;1774737;80;20147;-83
2022/01/22 03:53:35;;;;;;;;;;;;;;;2.45;66.80;99889.20;1770806;79;20223;-82
2022/01/22 03:58:30;;;;;;;;;;;;;;;3.00;65.07;99885.66;1769001;80;20109;-81
2022/01/22 04:03:40;;;;;;;;;;;;;;;2.95;64.91;99906.02;1771424;79;20168;-84
2022/01/22 04:08:43;;;;;;;;;;;;;;;3.15;64.14;99893.62;1769742;80;20156;-80
2022/01/22 04:11:13;;;;;;;;;;;;;;;2.94;64.63;99891.33;1774328;80;20220;-82
2022/01/22 04:13:36;;;;;;;;;;;;;;;2.91;64.57;99898.08;1775097;80;20148;-82
2022/01/22 04:16:02;;;;;;;;;;;;;;;3.16;64.06;99908.82;1770090;80;21434;-82
2022/01/22 04:29:07;;;;;;;;;;;;;;;3.12;63.35;99913.41;1770751;80;20137;-80
2022/01/22 04:31:33;;;;;;;;;;;;;;;2.98;63.61;99907.09;1773738;80;20842;-82
2022/01/22 04:33:58;;;;;;;;;;;;;;;3.19;63.00;99893.76;1772547;79;21081;-80
2022/01/22 04:36:24;;;;;;;;;;;;;;;3.02;63.06;99919.80;1776911;79;20147;-80
2022/01/22 04:38:49;;;;;;;;;;;;;;;3.45;62.22;99918.38;1774723;80;20615;-80
2022/01/22 04:41:15;;;;;;;;;;;;;;;3.47;62.53;99924.79;1769451;79;20566;-81
2022/01/22 04:43:42;;;;;;;;;;;;;;;3.41;62.20;99931.30;1767351;80;20245;-81
2022/01/22 04:49:09;;;;;;;;;;;;;;;3.51;61.55;99925.75;1765788;80;20084;-81
2022/01/22 04:56:49;;;;;;;;;;;;;;;3.24;62.44;99930.77;1774835;79;20129;-81
2022/01/22 04:59:15;;;;;;;;;;;;;;;3.47;61.80;99936.05;1771435;80;21252;-81
2022/01/22 05:01:41;;;;;;;;;;;;;;;3.39;62.15;99946.25;1769670;79;20745;-82
2022/01/22 05:04:07;;;;;;;;;;;;;;;3.31;62.50;99936.83;1774269;80;20227;-83
2022/01/22 05:06:32;;;;;;;;;;;;;;;3.30;62.42;99939.11;1766673;80;20266;-81
2022/01/22 05:08:58;;;;;;;;;;;;;;;3.15;62.80;99932.76;1766286;80;20141;-81
2022/01/22 05:11:24;;;;;;;;;;;;;;;3.44;61.85;99937.59;1776399;80;21081;-81
2022/01/22 05:13:53;;;;;;;;;;;;;;;3.17;62.65;99945.23;1770512;79;20478;-82
2022/01/22 05:16:19;;;;;;;;;;;;;;;3.08;62.87;99938.54;1774944;80;20108;-80
2022/01/22 05:18:57;;;;;;;;;;;;;;;3.18;62.52;99948.66;1775329;80;20183;-83
2022/01/22 05:21:19;;;;;;;;;;;;;;;3.38;61.87;99946.70;1772071;80;20350;-83
2022/01/22 05:23:46;;;;;;;;;;;;;;;3.46;61.92;99938.78;1767959;80;21180;-81
2022/01/22 05:27:21;;;;;;;;;;;;;;;3.62;61.48;99948.89;1774267;79;20135;-81
2022/01/22 05:39:24;;;;;;;;;;;;;;;3.92;60.81;99949.16;1767409;80;20139;-81
2022/01/22 05:41:49;;;;;;;;;;;;;;;3.82;60.95;99959.95;1766831;80;20156;-82
2022/01/22 05:44:15;;;;;;;;;;;;;;;3.77;61.15;99962.09;1768221;80;20169;-81
2022/01/22 05:46:41;;;;;;;;;;;;;;;3.43;61.95;99989.43;1771212;80;20184;-80
2022/01/22 05:49:06;;;;;;;;;;;;;;;3.83;60.91;99983.82;1770398;80;21080;-81
2022/01/22 05:51:32;;;;;;;;;;;;;;;3.87;61.21;99994.86;1762597;80;20177;-81
2022/01/22 05:54:29;;;;;;;;;;;;;;;3.84;60.97;99986.80;1766713;80;20480;-81
2022/01/22 06:01:57;;;;;;;;;;;;;;;4.13;60.27;100003.31;1768863;80;20143;-80
2022/01/22 06:04:23;;;;;;;;;;;;;;;3.88;60.70;100007.80;1773555;80;20232;-84
2022/01/22 06:06:49;;;;;;;;;;;;;;;3.92;60.62;100011.86;1765724;80;20159;-80
2022/01/22 06:09:14;;;;;;;;;;;;;;;3.80;60.73;100010.66;1769376;80;20456;-81
2022/01/22 06:12:14;;;;;;;;;;;;;;;4.30;59.79;100006.78;1770616;80;20191;-82
2022/01/22 06:14:22;;;;;;;;;;;;;;;3.89;60.71;100013.39;1763737;80;20147;-80
2022/01/22 06:16:48;;;;;;;;;;;;;;;4.25;60.01;100015.44;1764432;79;20127;-84
2022/01/22 06:19:14;;;;;;;;;;;;;;;4.28;59.85;100016.50;1770270;80;20120;-80
2022/01/22 06:21:39;;;;;;;;;;;;;;;4.10;60.34;100027.06;1766791;80;20480;-80
2022/01/22 06:24:06;;;;;;;;;;;;;;;3.94;60.89;100030.84;1762828;79;20182;-80
2022/01/22 06:26:31;;;;;;;;;;;;;;;4.16;61.36;100033.13;1771853;80;21080;-80
2022/01/22 06:28:58;;;;;;;;;;;;;;;4.17;60.97;100049.18;1765799;80;20615;-81
2022/01/22 06:31:24;;;;;;;;;;;;;;;3.95;61.91;100035.13;1765593;79;20153;-80
2022/01/22 06:33:50;;;;;;;;;;;;;;;3.98;62.45;100031.92;1771783;79;20207;-80
2022/01/22 06:36:15;;;;;;;;;;;;;;;4.01;62.25;100047.37;1753705;80;20125;-79
2022/01/22 06:38:41;;;;;;;;;;;;;;;3.86;62.44;100042.36;1752989;80;22158;-81
2022/01/22 06:43:50;;;;;;;;;;;;;;;4.13;62.36;100059.05;1751174;81;20160;-80
2022/01/22 06:46:16;;;;;;;;;;;;;;;4.02;63.36;100046.42;1751266;81;20152;-81
2022/01/22 06:48:41;;;;;;;;;;;;;;;4.08;63.69;100065.08;1750976;81;20125;-81
2022/01/22 06:51:07;;;;;;;;;;;;;;;4.24;63.36;100060.84;1751034;81;21055;-80
2022/01/22 06:53:36;;;;;;;;;;;;;;;4.33;63.12;100061.08;1752220;81;20215;-80
2022/01/22 06:56:02;;;;;;;;;;;;;;;4.26;63.16;100068.08;1752277;80;20114;-79
2022/01/22 06:58:28;;;;;;;;;;;;;;;4.38;62.49;100065.47;1749189;81;20158;-82
2022/01/22 07:00:54;;;;;;;;;;;;;;;4.59;62.16;100079.49;1750131;81;20518;-81
2022/01/22 07:03:19;;;;;;;;;;;;;;;4.59;61.87;100072.14;1753395;81;21147;-79
2022/01/22 07:05:45;;;;;;;;;;;;;;;4.77;61.38;100085.54;1751676;81;20481;-80
2022/01/22 07:08:10;;;;;;;;;;;;;;;4.46;61.61;100090.56;1752427;81;20149;-83
2022/01/22 07:10:36;;;;;;;;;;;;;;;4.47;61.81;100096.13;1752300;81;21090;-83
2022/01/22 07:13:02;;;;;;;;;;;;;;;4.20;64.46;100099.91;1752749;80;20739;-80
2022/01/22 07:15:28;;;;;;;;;;;;;;;4.16;65.32;100119.86;1751135;81;22617;-82
2022/01/22 07:17:55;;;;;;;;;;;;;;;4.43;64.88;100093.42;1751698;81;20137;-80
2022/01/22 07:20:27;;;;;;;;;;;;;;;4.57;64.39;100095.79;1752851;80;20154;-81
2022/01/22 07:22:54;;;;;;;;;;;;;;;4.82;63.51;100092.57;1749640;81;20157;-81
2022/01/22 07:25:18;;;;;;;;;;;;;;;4.67;63.45;100112.41;1748088;80;20432;-81
2022/01/22 07:27:44;;;;;;;;;;;;;;;4.10;64.37;100100.23;1752176;81;21136;-82
2022/01/22 07:30:11;;;;;;;;;;;;;;;4.59;63.37;100093.88;1752729;81;20189;-81
2022/01/22 07:32:41;;;;;;;;;;;;;;;4.17;63.68;100104.06;1753706;81;20986;-83
2022/01/22 07:35:04;;;;;;;;;;;;;;;4.13;64.31;100109.16;1749037;81;20094;-85
2022/01/22 07:37:30;;;;;;;;;;;;;;;4.37;63.45;100109.58;1749636;81;20173;-83
2022/01/22 07:39:55;;;;;;;;;;;;;;;4.33;63.49;100114.18;1749121;80;21185;-81
2022/01/22 07:42:21;;;;;;;;;;;;;;;4.47;63.69;100114.44;1751806;81;20248;-81
2022/01/22 07:44:46;;;;;;;;;;;;;;;4.76;62.85;100115.29;1750922;81;20518;-81
2022/01/22 07:47:12;;;;;;;;;;;;;;;4.45;63.23;100121.58;1751712;81;20153;-81
2022/01/22 07:49:38;;;;;;;;;;;;;;;4.49;64.44;100119.09;1754140;81;20151;-83
2022/01/22 07:52:04;;;;;;;;;;;;;;;4.46;63.59;100127.99;1752836;81;20996;-82
2022/01/22 07:54:31;;;;;;;;;;;;;;;4.59;63.52;100121.34;1752587;81;20485;-81
2022/01/22 07:56:57;;;;;;;;;;;;;;;4.62;63.75;100143.33;1750891;81;20244;-84
2022/01/22 07:59:23;;;;;;;;;;;;;;;4.62;63.77;100148.56;1751076;81;20141;-80
2022/01/22 08:01:48;;;;;;;;;;;;;;;4.55;63.69;100162.23;1752673;81;20160;-82
2022/01/22 08:04:14;;;;;;;;;;;;;;;4.78;63.16;100173.55;1751587;81;21088;-84
2022/01/22 08:06:39;;;;;;;;;;;;;;;4.88;63.02;100161.43;1750564;81;20357;-81
2022/01/22 08:09:05;;;;;;;;;;;;;;;4.82;62.92;100177.60;1752148;81;20475;-81
2022/01/22 08:11:31;;;;;;;;;;;;;;;4.66;63.76;100174.86;1752595;81;20212;-81
2022/01/22 08:13:56;;;;;;;;;;;;;;;4.85;63.60;100185.22;1752080;81;20700;-87
2022/01/22 08:16:22;;;;;;;;;;;;;;;5.11;63.17;100170.11;1753409;81;21090;-80
2022/01/22 08:18:48;;;;;;;;;;;;;;;5.03;63.51;100173.33;1752182;81;20166;-82
2022/01/22 08:21:13;;;;;;;;;;;;;;;4.97;63.71;100183.41;1752278;81;20198;-84
2022/01/22 08:23:39;;;;;;;;;;;;;;;5.39;62.77;100187.08;1751019;81;21170;-83
2022/01/22 08:26:08;;;;;;;;;;;;;;;4.96;63.47;100200.09;1750945;81;20174;-81
2022/01/22 08:36:47;;;;;;;;;;;;;;;5.08;63.33;100216.61;1766511;79;20187;-84
2022/01/22 08:39:14;;;;;;;;;;;;;;;5.60;62.06;100228.23;1775646;80;20140;-80
2022/01/22 08:41:40;;;;;;;;;;;;;;;5.67;62.09;100238.58;1772632;80;21181;-83
2022/01/22 08:44:05;;;;;;;;;;;;;;;5.75;61.42;100220.45;1773184;79;20488;-79
2022/01/22 08:46:31;;;;;;;;;;;;;;;5.84;61.14;100240.31;1767341;80;20245;-81
2022/01/22 08:48:57;;;;;;;;;;;;;;;6.00;61.01;100247.34;1764559;80;20266;-82
2022/01/22 08:51:23;;;;;;;;;;;;;;;5.67;61.91;100258.23;1760538;80;20253;-78
2022/01/22 08:53:49;;;;;;;;;;;;;;;5.59;62.00;100271.09;1767346;80;21044;-81
2022/01/22 08:56:15;;;;;;;;;;;;;;;5.77;61.64;100265.36;1769503;80;20784;-81
2022/01/22 08:58:40;;;;;;;;;;;;;;;5.50;62.24;100264.80;1774508;79;20415;-81
2022/01/22 09:01:06;;;;;;;;;;;;;;;5.74;61.88;100254.64;1762741;80;20137;-86
2022/01/22 09:03:31;;;;;;;;;;;;;;;5.75;61.63;100263.69;1770192;80;20715;-85
2022/01/22 09:05:57;;;;;;;;;;;;;;;5.82;61.31;100254.03;1764224;80;22009;-81
2022/01/22 09:08:26;;;;;;;;;;;;;;;5.55;61.83;100263.13;1761544;80;20152;-82
2022/01/22 09:10:52;;;;;;;;;;;;;;;5.52;61.64;100273.85;1766477;80;20100;-81
2022/01/22 09:13:19;;;;;;;;;;;;;;;5.48;62.01;100280.27;1768177;80;20194;-81
2022/01/22 09:15:44;;;;;;;;;;;;;;;5.55;62.04;100283.59;1769862;80;20203;-84
2022/01/22 09:18:10;;;;;;;;;;;;;;;5.72;61.45;100295.38;1767401;80;21021;-82
2022/01/22 09:23:07;;;;;;;;;;;;;;;5.57;61.56;100312.30;1772695;80;20199;-83
2022/01/22 09:25:32;;;;;;;;;;;;;;;5.68;61.14;100304.91;1773957;79;20163;-85
2022/01/22 09:27:58;;;;;;;;;;;;;;;5.82;60.68;100302.51;1763387;79;20164;-87
2022/01/22 09:30:24;;;;;;;;;;;;;;;5.74;60.05;100313.11;1770486;80;20610;-87
2022/01/22 09:32:49;;;;;;;;;;;;;;;5.59;60.37;100320.86;1767348;80;20145;-83
2022/01/22 09:35:15;;;;;;;;;;;;;;;5.58;60.12;100325.77;1768709;80;20159;-83
2022/01/22 09:37:41;;;;;;;;;;;;;;;5.79;59.19;100321.92;1763856;80;20232;-85
2022/01/22 09:40:07;;;;;;;;;;;;;;;6.10;58.53;100326.06;1767892;80;20415;-80
2022/01/22 09:42:33;;;;;;;;;;;;;;;6.27;57.91;100324.22;1737073;81;21807;-81
2022/01/22 09:44:58;;;;;;;;;;;;;;;6.25;57.67;100342.37;1776329;79;20917;-83
2022/01/22 09:47:24;;;;;;;;;;;;;;;6.31;56.61;100331.84;1755580;80;20146;-81
2022/01/22 09:49:49;;;;;;;;;;;;;;;6.59;56.29;100335.70;1757155;80;20186;-81
2022/01/22 09:52:15;;;;;;;;;;;;;;;7.07;54.53;100328.65;1763157;80;20470;-81
2022/01/22 09:54:41;;;;;;;;;;;;;;;6.89;53.94;100342.00;1751205;80;21076;-82
2022/01/22 09:57:08;;;;;;;;;;;;;;;6.77;53.21;100349.91;1763192;80;20280;-83
2022/01/22 09:59:34;;;;;;;;;;;;;;;6.56;53.81;100351.70;1759140;80;20146;-81
2022/01/22 10:02:07;;;;;;;;;;;;;;;7.19;52.86;100360.45;1766814;80;20236;-84
2022/01/22 10:04:39;;;;;;;;;;;;;;;7.22;52.83;100368.52;1752983;80;20520;-80
2022/01/22 10:07:05;;;;;;;;;;;;;;;6.69;52.95;100370.70;1770553;80;20133;-83
2022/01/22 10:09:46;;;;;;;;;;;;;;;6.54;53.26;100375.89;1761894;80;20190;-83
2022/01/22 10:12:12;;;;;;;;;;;;;;;7.01;52.42;100379.05;1756255;80;20171;-86
2022/01/22 10:15:16;;;;;;;;;;;;;;;7.15;52.15;100381.34;1748520;80;20260;-82
2022/01/22 10:17:55;;;;;;;;;;;;;;;7.25;52.44;100388.45;1760230;80;20195;-81
2022/01/22 10:20:26;;;;;;;;;;;;;;;7.27;52.10;100377.33;1758705;80;21352;-86
2022/01/22 10:23:03;;;;;;;;;;;;;;;7.43;51.59;100386.91;1759299;80;20181;-81
2022/01/22 10:25:43;;;;;;;;;;;;;;;7.12;51.11;100394.73;1769791;80;20666;-84
2022/01/22 10:28:16;;;;;;;;;;;;;;;6.82;51.35;100396.31;1758629;80;20485;-82
2022/01/22 10:30:42;;;;;;;;;;;;;;;7.05;50.85;100388.31;1759071;80;20195;-82
2022/01/22 10:33:34;;;;;;;;;;;;;;;6.95;51.17;100395.31;1722155;80;39518;-82
2022/01/22 10:36:17;;;;;;;;;;;;;;;6.86;51.38;100393.44;1757761;80;20148;-90
2022/01/22 10:38:47;;;;;;;;;;;;;;;7.05;51.19;100393.56;1763826;79;20286;-86
2022/01/22 10:41:16;;;;;;;;;;;;;;;6.99;50.95;100405.89;1764674;80;20124;-87
2022/01/22 10:43:52;;;;;;;;;;;;;;;6.49;51.46;100422.66;1759975;79;20228;-83
2022/01/22 10:46:20;;;;;;;;;;;;;;;6.53;51.38;100424.09;1755974;80;21290;-85
2022/01/22 10:49:04;;;;;;;;;;;;;;;6.60;51.58;100433.13;1757681;80;20177;-82
2022/01/22 10:51:32;;;;;;;;;;;;;;;6.59;51.38;100431.48;1762051;80;20149;-83
2022/01/22 10:54:03;;;;;;;;;;;;;;;6.69;51.23;100438.94;1757068;80;20272;-81
2022/01/22 10:56:31;;;;;;;;;;;;;;;6.60;51.26;100444.47;1761849;80;20176;-81
2022/01/22 10:59:07;;;;;;;;;;;;;;;6.70;51.41;100452.42;1758880;80;21882;-85
2022/01/22 11:01:56;;;;;;;;;;;;;;;6.82;51.11;100451.44;1757658;80;20173;-82
2022/01/22 11:04:23;;;;;;;;;;;;;;;6.79;51.08;100455.62;1758861;80;20161;-86
2022/01/22 11:06:57;;;;;;;;;;;;;;;6.72;50.67;100453.62;1762161;80;20186;-82
2022/01/22 11:09:23;;;;;;;;;;;;;;;7.27;50.07;100457.45;1759530;80;20192;-83
2022/01/22 11:11:49;;;;;;;;;;;;;;;7.36;50.07;100452.75;1753323;80;21183;-83
2022/01/22 11:14:15;;;;;;;;;;;;;;;6.95;50.55;100464.88;1758011;79;20485;-87
2022/01/22 11:16:42;;;;;;;;;;;;;;;6.69;51.23;100474.37;1764585;80;20213;-78
2022/01/22 11:19:09;;;;;;;;;;;;;;;7.12;50.77;100468.27;1760435;79;20253;-81
2022/01/22 11:21:35;;;;;;;;;;;;;;;6.86;50.63;100478.27;1759107;80;20211;-80
2022/01/22 11:24:01;;;;;;;;;;;;;;;7.16;50.34;100469.70;1752449;80;22673;-79
2022/01/22 11:26:27;;;;;;;;;;;;;;;6.45;51.03;100481.94;1761395;80;20191;-82
2022/01/22 11:28:53;;;;;;;;;;;;;;;6.94;50.32;100486.34;1761286;80;20194;-84
2022/01/22 11:31:20;;;;;;;;;;;;;;;6.69;49.71;100491.43;1756583;80;20522;-86
2022/01/22 11:33:46;;;;;;;;;;;;;;;5.93;50.98;100481.57;1760838;80;20160;-83
2022/01/22 11:36:16;;;;;;;;;;;;;;;4.95;52.70;100514.58;1766053;80;21074;-83
2022/01/22 11:38:44;;;;;;;;;;;;;;;4.84;52.88;100506.67;1769871;80;20192;-84
2022/01/22 11:41:20;;;;;;;;;;;;;;;4.70;52.94;100497.20;1763479;80;20507;-84
2022/01/22 11:44:17;;;;;;;;;;;;;;;4.91;52.84;100507.92;1765279;80;20285;-83
2022/01/22 11:46:42;;;;;;;;;;;;;;;4.73;53.17;100509.23;1762688;80;20160;-81
2022/01/22 11:49:17;;;;;;;;;;;;;;;4.92;53.51;100505.64;1763816;80;21184;-80
2022/01/22 11:51:46;;;;;;;;;;;;;;;4.60;54.39;100515.78;1763700;80;20633;-79
2022/01/22 11:54:13;;;;;;;;;;;;;;;4.63;54.43;100519.05;1757439;80;20194;-85
2022/01/22 11:56:42;;;;;;;;;;;;;;;4.78;54.26;100524.13;1767696;80;20177;-79
2022/01/22 11:59:19;;;;;;;;;;;;;;;4.72;54.53;100525.87;1756918;80;20168;-81
2022/01/22 12:01:52;;;;;;;;;;;;;;;4.94;54.36;100524.70;1762651;80;21065;-84
2022/01/22 12:04:20;;;;;;;;;;;;;;;4.88;54.16;100519.91;1764927;80;20165;-80
2022/01/22 12:07:05;;;;;;;;;;;;;;;4.26;55.28;100530.77;1762339;80;20174;-84
2022/01/22 12:10:17;;;;;;;;;;;;;;;4.39;54.99;100550.35;1762430;80;20218;-79
2022/01/22 12:15:36;;;;;;;;;;;;;;;4.59;54.04;100558.13;1767990;80;20156;-79
2022/01/22 12:18:07;;;;;;;;;;;;;;;4.48;54.01;100561.97;1762211;80;20284;-79
2022/01/22 12:23:19;;;;;;;;;;;;;;;5.02;53.03;100561.63;1761964;80;20306;-78
2022/01/22 12:25:47;;;;;;;;;;;;;;;5.14;52.34;100572.15;1768348;80;20438;-82
2022/01/22 12:28:13;;;;;;;;;;;;;;;5.23;52.19;100575.41;1753516;80;21189;-80
2022/01/22 12:30:44;;;;;;;;;;;;;;;5.34;52.29;100575.45;1759813;80;20487;-85
2022/01/22 12:33:13;;;;;;;;;;;;;;;5.53;51.65;100580.21;1758293;80;20201;-80
2022/01/22 12:35:39;;;;;;;;;;;;;;;5.39;50.84;100593.00;1764813;80;20149;-81
2022/01/22 12:38:26;;;;;;;;;;;;;;;5.28;50.88;100583.76;1770134;80;20164;-85
2022/01/22 12:40:57;;;;;;;;;;;;;;;5.20;51.30;100590.03;1763324;80;20108;-81
2022/01/22 12:43:34;;;;;;;;;;;;;;;5.15;51.72;100584.30;1763377;80;20167;-81
2022/01/22 12:46:00;;;;;;;;;;;;;;;4.74;51.97;100593.30;1765029;80;20439;-81
2022/01/22 12:48:27;;;;;;;;;;;;;;;4.79;51.57;100595.14;1757674;80;20534;-83
2022/01/22 12:50:53;;;;;;;;;;;;;;;4.94;51.60;100583.59;1755478;80;20184;-79
2022/01/22 12:53:19;;;;;;;;;;;;;;;4.61;51.67;100591.53;1729936;80;21714;-82
2022/01/22 12:56:01;;;;;;;;;;;;;;;5.00;51.72;100593.63;1765727;80;20107;-79
2022/01/22 12:58:23;;;;;;;;;;;;;;;4.54;52.79;100600.77;1756110;80;20661;-78
2022/01/22 13:00:52;;;;;;;;;;;;;;;4.55;52.25;100610.27;1760476;80;20166;-81
2022/01/22 13:03:34;;;;;;;;;;;;;;;4.91;51.22;100602.13;1771115;80;20128;-81
2022/01/22 13:05:59;;;;;;;;;;;;;;;5.22;51.44;100605.19;1764437;80;21965;-81
2022/01/22 13:08:31;;;;;;;;;;;;;;;4.81;51.66;100610.25;1755867;80;20138;-87
2022/01/22 13:10:59;;;;;;;;;;;;;;;5.03;51.32;100607.80;1755917;80;20158;-85
2022/01/22 13:13:25;;;;;;;;;;;;;;;5.71;49.84;100607.30;1756839;80;20207;-80
2022/01/22 13:16:08;;;;;;;;;;;;;;;5.79;49.31;100615.42;1760291;80;20495;-80
2022/01/22 13:18:49;;;;;;;;;;;;;;;5.54;48.91;100611.16;1766649;80;21045;-83
2022/01/22 13:21:15;;;;;;;;;;;;;;;5.96;49.16;100615.48;1767754;80;20180;-80
2022/01/22 13:23:41;;;;;;;;;;;;;;;6.02;48.57;100622.92;1764480;80;20577;-80
2022/01/22 13:26:07;;;;;;;;;;;;;;;6.03;47.87;100642.95;1760620;80;20125;-80
2022/01/22 13:28:33;;;;;;;;;;;;;;;5.94;48.33;100637.05;1757813;80;20272;-81
2022/01/22 13:31:05;;;;;;;;;;;;;;;6.20;47.58;100632.97;1766058;80;21099;-79
2022/01/22 13:33:39;;;;;;;;;;;;;;;6.30;47.58;100635.27;1763991;80;20128;-86
2022/01/22 13:36:13;;;;;;;;;;;;;;;6.41;46.99;100646.25;1755939;80;20181;-81
2022/01/22 13:49:30;;;;;;;;;;;;;;;5.02;49.18;100648.00;1765353;80;20126;-78
2022/01/22 13:52:05;;;;;;;;;;;;;;;4.96;49.47;100659.38;1769477;80;20187;-78
2022/01/22 13:54:38;;;;;;;;;;;;;;;5.11;49.34;100667.47;1767811;80;20879;-79
2022/01/22 13:57:08;;;;;;;;;;;;;;;5.22;49.42;100668.02;1769456;80;21236;-81
2022/01/22 13:59:42;;;;;;;;;;;;;;;5.77;48.28;100668.92;1756839;80;20202;-85
2022/01/22 14:02:36;;;;;;;;;;;;;;;5.84;48.12;100676.67;1766578;80;20523;-80
2022/01/22 14:04:58;;;;;;;;;;;;;;;6.23;47.98;100675.55;1757976;80;20305;-80
2022/01/22 14:07:29;;;;;;;;;;;;;;;6.64;46.74;100686.48;1768207;80;20173;-79
2022/01/22 14:09:59;;;;;;;;;;;;;;;7.12;45.70;100674.44;1762012;80;21398;-79
2022/01/22 14:12:27;;;;;;;;;;;;;;;7.42;44.71;100686.58;1760485;80;20144;-78
2022/01/22 14:14:55;;;;;;;;;;;;;;;7.69;44.03;100688.77;1761501;80;20222;-79
2022/01/22 14:17:22;;;;;;;;;;;;;;;7.15;43.96;100704.39;1760132;80;20170;-81
2022/01/22 14:20:03;;;;;;;;;;;;;;;6.93;44.68;100708.32;1762606;80;20209;-81
2022/01/22 14:22:29;;;;;;;;;;;;;;;7.04;44.34;100729.35;1764186;80;21265;-81
2022/01/22 14:25:12;;;;;;;;;;;;;;;7.41;44.29;100723.85;1769424;80;20159;-79
2022/01/22 14:27:38;;;;;;;;;;;;;;;10.18;38.98;100730.36;1762709;80;20124;-81
2022/01/22 14:30:04;;;;;;;;;;;;;;;8.95;40.28;100725.70;1762884;80;20131;-81
2022/01/22 14:32:30;;;;;;;;;;;;;;;8.80;40.81;100738.86;1765924;80;20200;-84
2022/01/22 14:34:56;;;;;;;;;;;;;;;6.75;44.41;100742.91;1762723;80;22081;-82
2022/01/22 14:37:30;;;;;;;;;;;;;;;6.11;45.89;100741.53;1765500;80;20322;-79
2022/01/22 14:45:29;;;;;;;;;;;;;;;5.00;48.33;100755.91;1761588;80;20292;-80
2022/01/22 14:47:57;;;;;;;;;;;;;;;5.09;48.38;100761.44;1765600;80;21196;-81
2022/01/22 14:50:23;;;;;;;;;;;;;;;5.03;48.12;100760.93;1763029;80;20184;-84
2022/01/22 14:52:54;;;;;;;;;;;;;;;4.88;48.64;100758.05;1766419;80;20263;-84
2022/01/22 14:55:19;;;;;;;;;;;;;;;4.44;49.22;100760.09;1762659;80;20549;-79
2022/01/22 14:57:45;;;;;;;;;;;;;;;4.51;49.38;100768.84;1760764;80;20137;-81
2022/01/22 15:00:14;;;;;;;;;;;;;;;4.14;50.00;100778.61;1756528;80;21169;-83
2022/01/22 15:02:42;;;;;;;;;;;;;;;4.22;50.31;100765.87;1750894;80;20182;-87